Nearby METAR Reports

 

EGGP - Liverpool Airpor, United Kingdom
Distance from station: ESE 7mi, 11km
Updated: 22/02/2024 14:20
Partly cloudy
Partly cloudy
 Wind from NW
Wind: NW 15 mph , 24 km/h
Temperature: 7°C
Wind Chill: 3°C
Dew Point: 2°C
Humidity: 71%
Barometer: 978 hPa
Clouds: Partly cloudy
Visibility: 6 miles , 10 km
Cloud details: Few Clouds 884 m
Partly cloudy 1189 m
2024/02/22 14:20 EGGP 221420Z 31013KT 9999 FEW029 SCT039 07/02 Q0978
EGNR - Hawarden (aut), United Kingdom
Distance from station: S 13mi, 20km
Updated: 22/02/2024 14:20
Partly cloudy
Partly cloudy
 Wind from NW
Wind: NW 14 mph , 22 km/h
Temperature: 7°C
Wind Chill: 4°C
Dew Point: 2°C
Humidity: 71%
Barometer: 979 hPa
Clouds: Partly cloudy
Visibility: 6 miles , 10 km
Cloud details: Few Clouds 549 m
Partly cloudy 701 m
2024/02/22 14:20 EGNR 221420Z 31012KT 270V340 9999 FEW018 SCT023 07/02 Q0979
EGOW - Woodvale Raf, United Kingdom
Distance from station: N 16mi, 26km
Updated: 22/02/2024 14:20
Few Clouds
Few Clouds
 Wind from NW
Wind: NW 14 mph , 22 km/h
Temperature: 7°C
Wind Chill: 4°C
Dew Point: 1°C
Humidity: 66%
Barometer: 978 hPa
Clouds: Few Clouds
Visibility: 6 miles , 10 km
Cloud details: Few Clouds 549 m
2024/02/22 14:20 EGOW 221420Z 31012KT 9999 FEW018 07/01 Q0978 RMK BLU
 
EGNO - Wharton, United Kingdom
Distance from station: N 28mi, 45km
Updated: 22/02/2024 14:20
Partly cloudy
Partly cloudy
 Wind from NW
Wind: NW 9 mph , 15 km/h
Temperature: 6°C
Wind Chill: 3°C
Dew Point: 1°C
Humidity: 71%
Barometer: 978 hPa
Clouds: Partly cloudy
Visibility: 6 miles , 10 km
Cloud details: Partly cloudy 732 m
2024/02/22 14:20 EGNO 221420Z 31008KT 9999 SCT024 06/01 Q0978
EGNH - Blackpool Airpor, United Kingdom
Distance from station: N 29mi, 47km
Updated: 22/02/2024 14:20
Few Clouds
Few Clouds
 Wind from NW
Wind: NW 15 mph , 24 km/h
Temperature: 7°C
Wind Chill: 3°C
Dew Point: 1°C
Humidity: 66%
Barometer: 978 hPa
Clouds: Few Clouds
Visibility: 6 miles , 10 km
Cloud details: Few Clouds 305 m
2024/02/22 14:20 EGNH 221420Z 32013KT 9999 FEW010 07/01 Q0978
EGCC - Manchester Intl, United Kingdom
Distance from station: E 31mi, 49km
Updated: 22/02/2024 14:20
Partly cloudy
Partly cloudy
 Wind from WNW
Wind: WNW 10 mph , 17 km/h
Temperature: 6°C
Wind Chill: 3°C
Dew Point: 4°C
Humidity: 87%
Barometer: 978 hPa
Clouds: Partly cloudy
Visibility: 6 miles , 10 km
Cloud details: Partly cloudy 671 m
2024/02/22 14:20 EGCC 221420Z AUTO 29009KT 250V310 9999 SCT022 06/04 Q0978
 
EGOS - Shawbury Raf, United Kingdom
Distance from station: SSE 40mi, 65km
Updated: 22/02/2024 14:20
Light rain, Mostly cloudy
Light rain, Mostly cloudy
 Wind from NW
Wind: NW 9 mph , 15 km/h
Temperature: 6°C
Wind Chill: 3°C
Dew Point: 4°C
Humidity: 87%
Barometer: 978 hPa
Summary: Light rain
Clouds: Mostly cloudy
Visibility: 6 miles , 10 km
Cloud details: Few Clouds 549 m
Mostly cloudy 1067 m
2024/02/22 14:20 EGOS 221420Z 31008KT 9999 -RA FEW018 BKN035 06/04 Q0978 TEMPO SCT020 RMK BLU TEMPO WHT